createdAt,value
2019-04-01T13:06:49.319Z,0
2019-04-01T13:08:08.003Z,5.3
2019-04-01T13:09:22.254Z,5.2
2019-04-01T13:10:35.479Z,4.9
2019-04-01T13:11:49.241Z,5.1
2019-04-01T13:13:02.970Z,5.1
2019-04-01T13:14:16.693Z,4.6
2019-04-01T13:15:30.415Z,4.8
2019-04-01T13:16:44.135Z,4.6
2019-04-01T13:17:57.877Z,4.5
2019-04-01T13:19:11.627Z,5
2019-04-01T13:20:36.907Z,4.5
2019-04-01T13:21:40.336Z,4.6
2019-04-01T13:22:53.803Z,4.8
2019-04-01T13:24:07.548Z,4.8
2019-04-01T13:25:22.137Z,4.8
2019-04-01T13:26:35.855Z,4.6
2019-04-01T13:27:49.608Z,4.9
2019-04-01T13:29:03.443Z,5
2019-04-01T13:30:17.136Z,4.4
2019-04-01T13:31:32.614Z,4.4
2019-04-01T13:32:46.370Z,4.9
2019-04-01T13:34:00.084Z,4.6
2019-04-01T13:35:13.825Z,4.4
2019-04-01T13:36:27.583Z,4.6
2019-04-01T13:37:41.308Z,5.1
2019-04-01T13:38:56.051Z,4.8
2019-04-01T13:40:10.822Z,4.4
2019-04-01T13:41:25.151Z,5
2019-04-01T13:42:39.314Z,4.9
2019-04-01T13:43:53.046Z,4.8
2019-04-01T13:45:06.768Z,4.8
2019-04-01T13:46:20.507Z,4.7
2019-04-01T13:47:34.260Z,5.1
2019-04-01T13:48:57.282Z,4.6
2019-04-01T13:50:04.233Z,4.8
2019-04-01T13:51:17.949Z,5.1
2019-04-01T13:52:32.049Z,5.3
2019-04-01T13:53:45.455Z,5.1
2019-04-01T13:54:59.197Z,5.3
2019-04-01T13:56:12.977Z,4.8
2019-04-01T13:57:26.661Z,5.1
2019-04-01T13:58:40.401Z,4.9
2019-04-01T13:59:54.107Z,5.1
2019-04-01T14:01:07.838Z,4.5
2019-04-01T14:02:21.579Z,4.3
2019-04-01T14:03:36.303Z,4.1
2019-04-01T14:04:50.052Z,4.1
2019-04-01T14:06:03.764Z,4.3
2019-04-01T14:07:17.502Z,4.3
2019-04-01T14:08:31.235Z,4.3
2019-04-01T14:09:44.955Z,3.7
2019-04-01T14:10:59.750Z,4.5
2019-04-01T14:12:14.506Z,4.9
2019-04-01T14:13:28.263Z,4.4
2019-04-01T14:14:42.012Z,4.1
2019-04-01T14:15:55.788Z,4.2
2019-04-01T14:17:09.543Z,4.1
2019-04-01T14:18:23.341Z,3.8
2019-04-01T14:19:37.125Z,3.7
2019-04-01T14:20:50.925Z,3.8
2019-04-01T14:22:04.681Z,3.8
2019-04-01T14:23:18.610Z,3.6
2019-04-01T14:24:32.141Z,4.1
2019-04-01T14:25:45.867Z,3.6
2019-04-01T14:26:59.596Z,3.5
2019-04-01T14:28:13.332Z,3.4
2019-04-01T14:29:27.082Z,3.7
2019-04-01T14:30:40.800Z,3.9
2019-04-01T14:31:54.531Z,3.4
2019-04-01T14:33:08.255Z,3.6
2019-04-01T14:34:23.016Z,3.5
2019-04-01T14:35:36.054Z,3.9
2019-04-01T14:36:49.437Z,3.8
2019-04-01T14:38:03.159Z,3.4
2019-04-01T14:39:16.898Z,3.4
2019-04-01T14:40:32.534Z,3.4
2019-04-01T14:41:44.343Z,4.2
2019-04-01T14:42:58.078Z,3.8
2019-04-01T14:44:11.814Z,3.8
2019-04-01T14:45:25.538Z,3.7
2019-04-01T14:46:39.266Z,3.9
2019-04-01T14:47:57.307Z,4
2019-04-01T14:49:07.672Z,3.4
2019-04-01T14:50:21.400Z,3.4
2019-04-01T14:51:35.124Z,3.2
2019-04-01T14:52:48.845Z,3.2
2019-04-01T14:54:02.585Z,3.3
2019-04-01T14:55:16.368Z,3.4
2019-04-01T14:56:30.107Z,4.2
2019-04-01T14:57:43.840Z,4.6
2019-04-01T14:58:57.563Z,4.1
2019-04-01T15:00:11.304Z,4.5
2019-04-01T15:01:25.037Z,3.9
2019-04-01T15:02:39.765Z,4.1
2019-04-01T15:03:53.486Z,4.2
2019-04-01T15:05:07.207Z,4.6
2019-04-01T15:06:20.943Z,4.1
2019-04-01T15:07:34.672Z,4.2
2019-04-01T15:08:48.553Z,4.4
2019-04-01T15:10:02.145Z,4.3
2019-04-01T15:11:15.865Z,4.5
2019-04-01T15:12:29.597Z,4.2
2019-04-01T15:13:43.318Z,4.5
2019-04-01T15:14:57.066Z,4.6
2019-04-01T15:16:10.795Z,4.2
2019-04-01T15:17:24.520Z,4.5
2019-04-01T15:18:38.245Z,4
2019-04-01T15:19:51.985Z,4.4
2019-04-01T15:21:05.713Z,4.9
2019-04-01T15:22:20.416Z,4.2
2019-04-01T15:23:35.135Z,4.2
2019-04-01T15:24:48.866Z,4.2
2019-04-01T15:26:03.542Z,4.4
2019-04-01T15:27:16.307Z,5.1
2019-04-01T15:28:31.430Z,4
2019-04-01T15:29:45.800Z,4
2019-04-01T15:30:59.519Z,4.2
2019-04-01T15:32:13.245Z,4
2019-04-01T15:33:26.971Z,4.2
2019-04-01T15:34:40.687Z,4.4
2019-04-01T15:35:54.439Z,4.3
2019-04-01T15:37:08.165Z,4.6
2019-04-01T15:38:22.880Z,3.9
2019-04-01T15:39:36.587Z,4.7
2019-04-01T15:40:50.328Z,4.4
2019-04-01T15:42:05.035Z,4.3
2019-04-01T15:43:18.744Z,4.5
2019-04-01T15:44:32.465Z,4.5
2019-04-01T15:45:47.189Z,4.5
2019-04-01T15:47:04.300Z,4.3
2019-04-01T15:48:14.614Z,4.3
2019-04-01T15:49:28.340Z,4
2019-04-01T15:50:42.092Z,4.2
2019-04-01T15:51:55.802Z,4.4
2019-04-01T15:53:09.510Z,4.2
2019-04-01T15:54:23.239Z,4.2
2019-04-01T15:55:36.975Z,4.3
2019-04-01T15:56:50.703Z,3.8
2019-04-01T15:58:04.435Z,3.9
2019-04-01T15:59:18.162Z,4.1
2019-04-01T16:00:32.138Z,3.9
2019-04-01T16:01:45.627Z,4.1
2019-04-01T16:02:59.346Z,4.4
2019-04-01T16:04:16.247Z,4.2
2019-04-01T16:05:30.222Z,4.8
2019-04-01T16:06:40.594Z,4.4
2019-04-01T16:07:54.387Z,4.1
2019-04-01T16:09:08.130Z,4.2
2019-04-01T16:10:21.918Z,4
2019-04-01T16:11:36.673Z,4.1
2019-04-01T16:12:50.423Z,4.1
2019-04-01T16:14:04.194Z,4.1
2019-04-01T16:15:17.974Z,4.3
2019-04-01T16:16:31.721Z,3.6
2019-04-01T16:17:45.490Z,4.6
2019-04-01T16:19:00.146Z,4.1
2019-04-01T16:20:13.068Z,4.2
2019-04-01T16:21:26.801Z,4.3
2019-04-01T16:22:43.499Z,4.2
2019-04-01T16:23:54.288Z,4.2
2019-04-01T16:25:08.026Z,4.2
2019-04-01T16:26:22.765Z,4.7
2019-04-01T16:27:36.492Z,5.2
2019-04-01T16:28:51.217Z,5
2019-04-01T16:30:04.949Z,4.3
2019-04-01T16:31:18.692Z,4.6
2019-04-01T16:32:32.411Z,4.2
2019-04-01T16:33:46.139Z,4.2
2019-04-01T16:34:59.872Z,4.4
2019-04-01T16:36:13.618Z,3.8
2019-04-01T16:37:27.345Z,3.9
2019-04-01T16:38:41.090Z,4.3
2019-04-01T16:39:54.923Z,4
2019-04-01T16:41:08.611Z,4.1
2019-04-01T16:42:22.366Z,3.9
2019-04-01T16:43:38.169Z,3.8
2019-04-01T16:44:49.798Z,4
2019-04-01T16:46:03.578Z,3.9
2019-04-01T16:47:17.287Z,4.2
2019-04-01T16:48:31.016Z,4.5
2019-04-01T16:49:44.758Z,4.1
2019-04-01T16:50:58.502Z,4
2019-04-01T16:52:15.252Z,3.9
2019-04-01T16:53:25.997Z,4.1
2019-04-01T16:54:39.718Z,4.6
2019-04-01T16:55:53.447Z,4.5
2019-04-01T16:57:07.198Z,4.4
2019-04-01T16:58:20.933Z,4.4
2019-04-01T16:59:34.654Z,4.3
2019-04-01T17:00:48.377Z,4.1
2019-04-01T17:02:02.152Z,4.6
2019-04-01T17:03:16.868Z,4.9
2019-04-01T17:04:30.612Z,4.4
2019-04-01T17:05:44.377Z,4.7
2019-04-01T17:06:58.146Z,4.4
2019-04-01T17:08:11.916Z,4.7
2019-04-01T17:09:25.625Z,4.7
2019-04-01T17:10:39.354Z,4.5
2019-04-01T17:11:54.343Z,5
2019-04-01T17:13:07.797Z,4.9
2019-04-01T17:14:24.160Z,4.6
2019-04-01T17:15:36.239Z,4.3
2019-04-01T17:16:50.017Z,4.7
2019-04-01T17:18:03.775Z,4.2
2019-04-01T17:19:17.500Z,4.2
2019-04-01T17:20:31.229Z,5.1
2019-04-01T17:21:45.986Z,4.7
2019-04-01T17:23:00.187Z,4.4
2019-04-01T17:24:13.424Z,5.3
2019-04-01T17:25:27.137Z,4.6
2019-04-01T17:26:40.860Z,4.7
2019-04-01T17:27:54.661Z,4.4
2019-04-01T17:29:08.390Z,4.3
2019-04-01T17:30:22.113Z,4.6
2019-04-01T17:31:35.845Z,5.1
2019-04-01T17:32:49.580Z,4.9
2019-04-01T17:34:03.311Z,4.9
2019-04-01T17:35:17.035Z,5
2019-04-01T17:36:30.782Z,4.8
2019-04-01T17:37:44.525Z,4.6
2019-04-01T17:38:58.255Z,4.7
2019-04-01T17:40:11.986Z,4.5
2019-04-01T17:41:26.697Z,5.2
2019-04-01T17:42:40.428Z,4.4
2019-04-01T17:43:55.155Z,4.3
2019-04-01T17:45:08.881Z,4.4
2019-04-01T17:46:22.601Z,4.4
2019-04-01T17:47:36.345Z,4.4
2019-04-01T17:48:50.060Z,4.3
2019-04-01T17:50:03.788Z,4.6
2019-04-01T17:51:17.524Z,3.9
2019-04-01T17:52:31.390Z,4.1
2019-04-01T17:53:45.111Z,4.3
2019-04-01T17:54:59.825Z,4.7
2019-04-01T17:56:13.558Z,4.3
2019-04-01T17:57:27.281Z,4.4
2019-04-01T17:58:41.047Z,4.4
2019-04-01T17:59:54.757Z,4.3
2019-04-01T18:01:10.305Z,4.5
2019-04-01T18:02:22.203Z,4.4
2019-04-01T18:03:35.945Z,4.8
2019-04-01T18:04:49.655Z,4.2
2019-04-01T18:06:03.387Z,4.5
2019-04-01T18:07:17.111Z,4.2
2019-04-01T18:08:31.841Z,4.2
2019-04-01T18:09:45.555Z,4.6
2019-04-01T18:10:59.279Z,4.4
2019-04-01T18:12:13.011Z,4.1
2019-04-01T18:13:26.754Z,4.2
2019-04-01T18:14:40.510Z,4.5
2019-04-01T18:15:57.115Z,4.4
2019-04-01T18:17:07.947Z,4.6
2019-04-01T18:18:26.895Z,4.5
2019-04-01T18:19:36.536Z,4.6
2019-04-01T18:20:50.108Z,4.8
2019-04-01T18:22:03.859Z,4.4
2019-04-01T18:23:21.863Z,4.4
2019-04-01T18:24:32.331Z,4.3
2019-04-01T18:25:46.077Z,4.7
2019-04-01T18:26:59.816Z,4.1
2019-04-01T18:28:13.875Z,4.5
2019-04-01T18:29:27.621Z,4.1
2019-04-01T18:30:41.376Z,4.5
2019-04-01T18:31:55.125Z,4.7
2019-04-01T18:33:08.834Z,5
2019-04-01T18:34:22.595Z,4.8
2019-04-01T18:35:37.328Z,4.2
2019-04-01T18:36:52.487Z,4.9
2019-04-01T18:38:05.805Z,4.4
2019-04-01T18:39:19.522Z,4.7
2019-04-01T18:40:35.476Z,4.6
2019-04-01T18:41:46.945Z,4.5
2019-04-01T18:43:00.661Z,4.2
2019-04-01T18:44:14.433Z,4.7
2019-04-01T18:45:28.158Z,4.4
2019-04-01T18:46:41.883Z,4.6
2019-04-01T18:47:55.610Z,4.4
2019-04-01T18:49:09.345Z,4.6
2019-04-01T18:50:23.084Z,5
2019-04-01T18:51:36.809Z,4.5
2019-04-01T18:52:50.527Z,4.6
2019-04-01T18:54:05.177Z,4.5
2019-04-01T18:55:17.964Z,4.7
2019-04-01T18:56:31.689Z,4.7
2019-04-01T18:57:45.416Z,4.6
2019-04-01T18:58:59.173Z,4.5
2019-04-01T19:00:13.890Z,4
2019-04-01T19:01:27.606Z,4.4
2019-04-01T19:02:42.217Z,4.6
2019-04-01T19:03:55.070Z,4.8
2019-04-01T19:05:09.953Z,4.3
2019-04-01T19:06:22.599Z,4.2
2019-04-01T19:07:36.424Z,4.4
2019-04-01T19:08:50.076Z,4.7
2019-04-01T19:10:06.252Z,4.6
2019-04-01T19:11:17.493Z,4.7
2019-04-01T19:12:31.211Z,4.5
2019-04-01T19:13:45.938Z,4.4
2019-04-01T19:15:02.272Z,4
2019-04-01T19:16:16.254Z,4.4
2019-04-01T19:17:27.077Z,4.9
2019-04-01T19:18:41.862Z,4.8
2019-04-01T19:19:54.552Z,4.2
2019-04-01T19:21:08.627Z,4.2
2019-04-01T19:22:21.991Z,4.4
2019-04-01T19:23:35.712Z,4.8
2019-04-01T19:24:49.510Z,4.4
2019-04-01T19:26:03.244Z,4.2
2019-04-01T19:27:17.987Z,4.2
2019-04-01T19:28:31.722Z,4.5
2019-04-01T19:29:45.916Z,4.2
2019-04-01T19:30:59.183Z,4.7
2019-04-01T19:32:14.695Z,4.2
2019-04-01T19:33:26.624Z,4.6
2019-04-01T19:34:40.340Z,4.8
2019-04-01T19:35:54.134Z,5.1
2019-04-01T19:37:07.866Z,5.1
2019-04-01T19:38:21.637Z,5.1
2019-04-01T19:39:35.279Z,5.1
2019-04-01T19:40:49.015Z,5
2019-04-01T19:42:02.732Z,4.7
2019-04-01T19:43:16.722Z,4.8
2019-04-01T19:44:30.203Z,5.4
2019-04-01T19:45:43.942Z,5.1
2019-04-01T19:46:58.664Z,5.2
2019-04-01T19:48:12.397Z,5.1
2019-04-01T19:49:26.125Z,4.8
2019-04-01T19:50:39.864Z,5.3
2019-04-01T19:51:53.612Z,5
2019-04-01T19:53:07.374Z,4.9
2019-04-01T19:54:28.144Z,5.1
2019-04-01T19:55:35.834Z,4.9
2019-04-01T19:56:49.562Z,5.2
2019-04-01T19:58:05.035Z,5.4
2019-04-01T19:59:17.001Z,5.4
2019-04-01T20:00:31.078Z,5.7
2019-04-01T20:01:44.450Z,5.8
2019-04-01T20:02:58.179Z,5.4
2019-04-01T20:04:11.910Z,6
2019-04-01T20:05:25.725Z,6.1
2019-04-01T20:06:40.763Z,6.2
2019-04-01T20:07:53.196Z,6.1
2019-04-01T20:09:07.917Z,5.8
2019-04-01T20:10:21.648Z,6.5
2019-04-01T20:11:36.406Z,6.8
2019-04-01T20:12:50.878Z,6.7
2019-04-01T20:14:03.861Z,6
2019-04-01T20:15:17.604Z,6.8
2019-04-01T20:16:31.340Z,6.1
2019-04-01T20:17:45.078Z,6
2019-04-01T20:18:59.833Z,5.9
2019-04-01T20:20:14.863Z,6.8
2019-04-01T20:21:28.542Z,6.4
2019-04-01T20:22:42.004Z,6.3
2019-04-01T20:23:55.728Z,6.5
2019-04-01T20:25:09.477Z,6.8
2019-04-01T20:26:23.206Z,6.3
2019-04-01T20:27:36.970Z,6.3
2019-04-01T20:28:50.662Z,6
2019-04-01T20:30:04.410Z,7
2019-04-01T20:31:19.148Z,5.8
2019-04-01T20:32:32.861Z,6.7
2019-04-01T20:33:46.607Z,6.5
2019-04-01T20:35:00.297Z,7.1
2019-04-01T20:36:14.039Z,6.8
2019-04-01T20:37:29.253Z,6.5
2019-04-01T20:38:42.516Z,6.8
2019-04-01T20:39:56.233Z,6.3
2019-04-01T20:41:10.033Z,7.6
2019-04-01T20:42:23.794Z,5.7
2019-04-01T20:43:37.506Z,6.7
2019-04-01T20:44:51.249Z,6.2
2019-04-01T20:46:05.053Z,6.5
2019-04-01T20:47:19.732Z,6.8
2019-04-01T20:48:33.697Z,6.3
2019-04-01T20:49:47.186Z,6.1
2019-04-01T20:51:00.907Z,6.6
2019-04-01T20:52:14.653Z,6.3
2019-04-01T20:53:28.377Z,6.9
2019-04-01T20:54:42.114Z,7
2019-04-01T20:55:55.796Z,6.5
2019-04-01T20:57:09.529Z,6.8
2019-04-01T20:58:23.252Z,6.4
2019-04-01T20:59:36.985Z,6.7
2019-04-01T21:00:50.723Z,6.8
2019-04-01T21:02:04.576Z,6.3
2019-04-01T21:03:18.216Z,6.9
2019-04-01T21:04:31.929Z,6.5
2019-04-01T21:05:45.666Z,6.4
2019-04-01T21:06:59.420Z,7.1
2019-04-01T21:08:13.150Z,6.2
2019-04-01T21:09:26.904Z,6.7
2019-04-01T21:10:42.104Z,6.7
2019-04-01T21:11:54.419Z,7.1
2019-04-01T21:13:08.155Z,6.8
2019-04-01T21:14:22.596Z,7.3
2019-04-01T21:15:35.656Z,6.2
2019-04-01T21:16:49.395Z,6.7
2019-04-01T21:18:03.150Z,6.7
2019-04-01T21:19:16.873Z,6.1
2019-04-01T21:20:30.620Z,6.7
2019-04-01T21:21:44.360Z,6.6
2019-04-01T21:22:58.123Z,6.4
2019-04-01T21:24:11.861Z,6.7
2019-04-01T21:25:25.606Z,6.6
2019-04-01T21:26:39.352Z,7.1
2019-04-01T21:27:53.554Z,6.8
2019-04-01T21:29:06.839Z,6.5
2019-04-01T21:30:20.591Z,7
2019-04-01T21:31:34.301Z,6.7
2019-04-01T21:32:48.067Z,6.1
2019-04-01T21:34:01.811Z,6.9
2019-04-01T21:35:16.538Z,6.4
2019-04-01T21:36:30.268Z,6.7
2019-04-01T21:37:44.033Z,6.4
2019-04-01T21:38:57.765Z,6.9
2019-04-01T21:40:11.486Z,6.3
2019-04-01T21:41:25.377Z,6.2
2019-04-01T21:42:38.995Z,6.6
2019-04-01T21:43:52.749Z,6.5
2019-04-01T21:45:06.484Z,6.3
2019-04-01T21:46:20.222Z,5.7
2019-04-01T21:47:33.973Z,5.7
2019-04-01T21:48:46.708Z,5.8
2019-04-01T21:50:00.465Z,6.8
2019-04-01T21:51:15.175Z,6.2
2019-04-01T21:52:29.773Z,6.5
2019-04-01T21:53:43.524Z,6.3
2019-04-01T21:54:57.445Z,6.6
2019-04-01T21:56:10.993Z,6.6
2019-04-01T21:57:24.725Z,6.2
2019-04-01T21:58:38.470Z,6.5
2019-04-01T21:59:52.793Z,6.3
2019-04-01T22:01:06.518Z,6.3
2019-04-01T22:02:20.239Z,6.8
2019-04-01T22:03:34.989Z,6.8
2019-04-01T22:04:47.724Z,6.7
2019-04-01T22:06:01.465Z,5.8
2019-04-01T22:07:15.210Z,6.6
2019-04-01T22:08:28.963Z,6.5
2019-04-01T22:09:42.717Z,6.3
2019-04-01T22:10:57.439Z,7.5
2019-04-01T22:12:11.166Z,6.9
2019-04-01T22:13:24.912Z,6.7
2019-04-01T22:14:38.668Z,6.6
2019-04-01T22:15:52.388Z,7.1
2019-04-01T22:17:06.122Z,6.3
2019-04-01T22:18:19.888Z,6.2
2019-04-01T22:19:33.631Z,6.7
2019-04-01T22:20:47.345Z,6.3
2019-04-01T22:22:01.083Z,6.1
2019-04-01T22:23:14.850Z,6.2
2019-04-01T22:24:28.624Z,6.3
2019-04-01T22:25:42.379Z,6.4
2019-04-01T22:26:56.470Z,6.2
2019-04-01T22:28:09.835Z,6.1
2019-04-01T22:29:23.595Z,6.6
2019-04-01T22:30:37.324Z,7.2
2019-04-01T22:31:51.063Z,6.9
2019-04-01T22:33:04.791Z,6.3
2019-04-01T22:34:18.543Z,6.2
2019-04-01T22:35:38.338Z,6.3
2019-04-01T22:36:46.968Z,6.3
2019-04-01T22:38:03.336Z,5.8
2019-04-01T22:39:26.594Z,6.6
2019-04-01T22:40:30.582Z,7.3
2019-04-01T22:41:43.861Z,6.7
2019-04-01T22:42:57.608Z,6
2019-04-01T22:44:11.361Z,6.2
2019-04-01T22:45:25.077Z,6.3
2019-04-01T22:46:38.811Z,6.2
2019-04-01T22:47:52.546Z,6.4
2019-04-01T22:49:06.304Z,6.3
2019-04-01T22:50:21.017Z,6.2
2019-04-01T22:51:34.745Z,6.2
2019-04-01T22:52:48.475Z,6.3
2019-04-01T22:54:02.624Z,6
2019-04-01T22:55:15.999Z,6.1
2019-04-01T22:56:29.738Z,6.1
2019-04-01T22:57:43.469Z,6.3
2019-04-01T22:58:57.220Z,6.3
2019-04-01T23:00:11.954Z,6.1
2019-04-01T23:01:25.688Z,6.1
2019-04-01T23:02:39.426Z,6.6
2019-04-01T23:03:53.148Z,6.6
2019-04-01T23:05:08.167Z,6.2
2019-04-01T23:06:20.635Z,7
2019-04-01T23:07:35.375Z,7.1
2019-04-01T23:08:49.139Z,6.7
2019-04-01T23:10:02.888Z,6.6
2019-04-01T23:11:16.636Z,6.7
2019-04-01T23:12:30.377Z,6.5
2019-04-01T23:13:44.109Z,6.3
2019-04-01T23:14:57.860Z,6.8
2019-04-01T23:16:12.131Z,6.7
2019-04-01T23:17:25.321Z,6.7
2019-04-01T23:18:39.031Z,6.2
2019-04-01T23:19:52.831Z,7.3
2019-04-01T23:21:06.562Z,6.4
2019-04-01T23:22:20.314Z,6.1
2019-04-01T23:23:34.048Z,6.3
2019-04-01T23:24:47.788Z,6.4
2019-04-01T23:26:01.512Z,6.6
2019-04-01T23:27:15.247Z,6.3
2019-04-01T23:28:28.991Z,6.4
2019-04-01T23:29:42.756Z,6.2
2019-04-01T23:30:56.491Z,6.2
2019-04-01T23:32:10.220Z,6.6
2019-04-01T23:33:24.958Z,6.6
2019-04-01T23:34:38.679Z,6.3
2019-04-01T23:35:52.455Z,6.8
2019-04-01T23:37:06.186Z,7.4
2019-04-01T23:38:19.918Z,6.7
2019-04-01T23:39:34.264Z,6.2
2019-04-01T23:40:47.393Z,6.6
2019-04-01T23:42:01.110Z,6.9
2019-04-01T23:43:14.864Z,6.6
2019-04-01T23:44:28.588Z,6.9
2019-04-01T23:45:42.346Z,6.4
2019-04-01T23:46:56.076Z,6.7
2019-04-01T23:48:09.823Z,6.4
2019-04-01T23:49:23.552Z,6.9
2019-04-01T23:50:38.170Z,6.5
2019-04-01T23:51:51.046Z,6.6
2019-04-01T23:53:04.767Z,6.6
2019-04-01T23:54:18.545Z,7.1
2019-04-01T23:55:32.274Z,6.8
2019-04-01T23:56:46.812Z,6.5
2019-04-01T23:58:00.532Z,7.5
2019-04-01T23:59:14.259Z,7.1
